sensor_id;sensor_type;location;lat;lon;timestamp;temperature;humidity
19972;DHT22;10147;16.402;102.848;2022-12-18T00:00:54;17.00;99.90
19972;DHT22;10147;16.402;102.848;2022-12-18T00:03:25;17.00;99.90
19972;DHT22;10147;16.402;102.848;2022-12-18T00:05:56;17.00;99.90
19972;DHT22;10147;16.402;102.848;2022-12-18T00:08:27;17.00;99.90
19972;DHT22;10147;16.402;102.848;2022-12-18T00:11:05;17.10;99.90
19972;DHT22;10147;16.402;102.848;2022-12-18T00:13:35;17.10;99.90
19972;DHT22;10147;16.402;102.848;2022-12-18T00:16:09;17.00;99.90
19972;DHT22;10147;16.402;102.848;2022-12-18T00:18:40;17.20;99.90
19972;DHT22;10147;16.402;102.848;2022-12-18T00:21:12;17.40;99.90
19972;DHT22;10147;16.402;102.848;2022-12-18T00:23:43;17.40;99.90
19972;DHT22;10147;16.402;102.848;2022-12-18T00:26:18;17.40;99.90
19972;DHT22;10147;16.402;102.848;2022-12-18T00:28:52;17.50;99.90
19972;DHT22;10147;16.402;102.848;2022-12-18T00:31:24;17.60;99.90
19972;DHT22;10147;16.402;102.848;2022-12-18T00:33:56;17.50;99.90
19972;DHT22;10147;16.402;102.848;2022-12-18T00:36:31;17.60;99.90
19972;DHT22;10147;16.402;102.848;2022-12-18T00:39:03;17.70;99.90
19972;DHT22;10147;16.402;102.848;2022-12-18T00:41:34;17.80;99.90
19972;DHT22;10147;16.402;102.848;2022-12-18T00:44:25;17.90;99.90
19972;DHT22;10147;16.402;102.848;2022-12-18T00:46:55;18.00;99.90
19972;DHT22;10147;16.402;102.848;2022-12-18T00:49:26;18.00;99.90
19972;DHT22;10147;16.402;102.848;2022-12-18T00:51:57;18.00;99.90
19972;DHT22;10147;16.402;102.848;2022-12-18T00:54:27;18.00;99.90
19972;DHT22;10147;16.402;102.848;2022-12-18T00:56:59;18.20;99.90
19972;DHT22;10147;16.402;102.848;2022-12-18T00:59:29;18.30;99.90
19972;DHT22;10147;16.402;102.848;2022-12-18T01:02:00;18.40;99.90
19972;DHT22;10147;16.402;102.848;2022-12-18T01:04:34;18.40;99.90
19972;DHT22;10147;16.402;102.848;2022-12-18T01:07:05;18.50;99.90
19972;DHT22;10147;16.402;102.848;2022-12-18T01:09:36;18.60;99.90
19972;DHT22;10147;16.402;102.848;2022-12-18T01:12:07;18.50;99.90
19972;DHT22;10147;16.402;102.848;2022-12-18T01:14:38;18.40;99.90
19972;DHT22;10147;16.402;102.848;2022-12-18T01:17:09;18.70;99.90
19972;DHT22;10147;16.402;102.848;2022-12-18T01:19:39;18.70;99.90
19972;DHT22;10147;16.402;102.848;2022-12-18T01:22:10;18.80;99.90
19972;DHT22;10147;16.402;102.848;2022-12-18T01:24:41;18.90;99.90
19972;DHT22;10147;16.402;102.848;2022-12-18T01:27:12;19.00;99.90
19972;DHT22;10147;16.402;102.848;2022-12-18T01:29:43;19.10;99.90
19972;DHT22;10147;16.402;102.848;2022-12-18T01:32:13;19.20;99.90
19972;DHT22;10147;16.402;102.848;2022-12-18T01:34:44;19.40;99.90
19972;DHT22;10147;16.402;102.848;2022-12-18T01:37:15;19.20;99.90
19972;DHT22;10147;16.402;102.848;2022-12-18T01:39:45;19.20;99.90
19972;DHT22;10147;16.402;102.848;2022-12-18T01:42:16;19.50;99.90
19972;DHT22;10147;16.402;102.848;2022-12-18T01:45:27;19.80;99.90
19972;DHT22;10147;16.402;102.848;2022-12-18T01:48:06;19.40;99.90
19972;DHT22;10147;16.402;102.848;2022-12-18T01:50:41;19.50;99.90
19972;DHT22;10147;16.402;102.848;2022-12-18T01:53:21;19.50;99.90
19972;DHT22;10147;16.402;102.848;2022-12-18T01:55:55;19.50;99.90
19972;DHT22;10147;16.402;102.848;2022-12-18T01:58:50;19.70;99.90
19972;DHT22;10147;16.402;102.848;2022-12-18T02:01:24;19.70;99.90
19972;DHT22;10147;16.402;102.848;2022-12-18T02:03:55;19.70;99.90
19972;DHT22;10147;16.402;102.848;2022-12-18T02:06:33;20.10;99.90
19972;DHT22;10147;16.402;102.848;2022-12-18T02:09:11;20.20;99.90
19972;DHT22;10147;16.402;102.848;2022-12-18T02:12:22;20.00;99.90
19972;DHT22;10147;16.402;102.848;2022-12-18T02:24:10;20.70;99.90
19972;DHT22;10147;16.402;102.848;2022-12-18T02:26:50;20.70;99.90
19972;DHT22;10147;16.402;102.848;2022-12-18T02:29:31;20.80;99.90
19972;DHT22;10147;16.402;102.848;2022-12-18T02:32:06;21.30;99.90
19972;DHT22;10147;16.402;102.848;2022-12-18T02:34:39;21.00;99.90
19972;DHT22;10147;16.402;102.848;2022-12-18T02:37:17;21.20;99.90
19972;DHT22;10147;16.402;102.848;2022-12-18T02:39:50;21.40;99.90
19972;DHT22;10147;16.402;102.848;2022-12-18T02:42:24;21.50;99.90
19972;DHT22;10147;16.402;102.848;2022-12-18T02:44:54;21.50;99.90
19972;DHT22;10147;16.402;102.848;2022-12-18T02:47:29;21.70;99.90
19972;DHT22;10147;16.402;102.848;2022-12-18T02:50:18;21.60;99.80
19972;DHT22;10147;16.402;102.848;2022-12-18T02:56:28;21.60;99.70
19972;DHT22;10147;16.402;102.848;2022-12-18T02:59:12;21.90;99.20
19972;DHT22;10147;16.402;102.848;2022-12-18T03:08:00;22.10;99.30
19972;DHT22;10147;16.402;102.848;2022-12-18T03:10:42;22.60;99.10
19972;DHT22;10147;16.402;102.848;2022-12-18T03:13:23;22.60;98.80
19972;DHT22;10147;16.402;102.848;2022-12-18T03:16:11;22.60;98.10
19972;DHT22;10147;16.402;102.848;2022-12-18T03:18:51;22.40;99.10
19972;DHT22;10147;16.402;102.848;2022-12-18T03:21:32;22.70;98.40
19972;DHT22;10147;16.402;102.848;2022-12-18T03:24:05;22.80;98.20
19972;DHT22;10147;16.402;102.848;2022-12-18T03:26:41;22.70;98.10
19972;DHT22;10147;16.402;102.848;2022-12-18T03:29:28;22.90;97.60
19972;DHT22;10147;16.402;102.848;2022-12-18T03:32:26;22.80;97.40
19972;DHT22;10147;16.402;102.848;2022-12-18T03:35:03;23.10;98.00
19972;DHT22;10147;16.402;102.848;2022-12-18T03:37:37;23.00;98.00
19972;DHT22;10147;16.402;102.848;2022-12-18T03:40:09;23.20;97.20
19972;DHT22;10147;16.402;102.848;2022-12-18T03:43:01;23.60;97.10
19972;DHT22;10147;16.402;102.848;2022-12-18T03:45:37;23.50;97.40
19972;DHT22;10147;16.402;102.848;2022-12-18T03:51:17;23.80;96.90
19972;DHT22;10147;16.402;102.848;2022-12-18T03:54:00;23.70;97.20
19972;DHT22;10147;16.402;102.848;2022-12-18T03:56:40;23.80;96.70
19972;DHT22;10147;16.402;102.848;2022-12-18T03:59:15;23.50;97.00
19972;DHT22;10147;16.402;102.848;2022-12-18T04:01:48;23.30;97.10
19972;DHT22;10147;16.402;102.848;2022-12-18T04:04:21;23.10;97.10
19972;DHT22;10147;16.402;102.848;2022-12-18T04:06:53;23.80;97.40
19972;DHT22;10147;16.402;102.848;2022-12-18T04:09:24;23.70;96.30
19972;DHT22;10147;16.402;102.848;2022-12-18T04:11:56;23.40;96.90
19972;DHT22;10147;16.402;102.848;2022-12-18T04:14:27;23.80;97.00
19972;DHT22;10147;16.402;102.848;2022-12-18T04:16:58;23.80;97.00
19972;DHT22;10147;16.402;102.848;2022-12-18T04:19:31;23.80;96.50
19972;DHT22;10147;16.402;102.848;2022-12-18T04:22:03;23.90;96.00
19972;DHT22;10147;16.402;102.848;2022-12-18T04:24:41;24.30;96.50
19972;DHT22;10147;16.402;102.848;2022-12-18T04:27:20;24.50;96.30
19972;DHT22;10147;16.402;102.848;2022-12-18T04:29:51;24.50;96.20
19972;DHT22;10147;16.402;102.848;2022-12-18T04:32:22;24.40;95.60
19972;DHT22;10147;16.402;102.848;2022-12-18T04:34:53;24.50;95.40
19972;DHT22;10147;16.402;102.848;2022-12-18T04:37:23;24.50;95.30
19972;DHT22;10147;16.402;102.848;2022-12-18T04:39:54;24.50;95.50
19972;DHT22;10147;16.402;102.848;2022-12-18T04:42:33;25.00;95.60
19972;DHT22;10147;16.402;102.848;2022-12-18T04:45:03;25.30;95.30
19972;DHT22;10147;16.402;102.848;2022-12-18T04:47:34;25.10;94.70
19972;DHT22;10147;16.402;102.848;2022-12-18T04:50:05;24.70;95.40
19972;DHT22;10147;16.402;102.848;2022-12-18T04:52:36;25.20;95.30
19972;DHT22;10147;16.402;102.848;2022-12-18T04:55:07;25.30;95.20
19972;DHT22;10147;16.402;102.848;2022-12-18T04:57:38;24.90;94.90
19972;DHT22;10147;16.402;102.848;2022-12-18T05:00:09;24.80;94.70
19972;DHT22;10147;16.402;102.848;2022-12-18T05:02:40;24.40;95.10
19972;DHT22;10147;16.402;102.848;2022-12-18T05:05:11;24.80;95.20
19972;DHT22;10147;16.402;102.848;2022-12-18T05:07:41;25.40;95.10
19972;DHT22;10147;16.402;102.848;2022-12-18T05:10:13;24.90;94.80
19972;DHT22;10147;16.402;102.848;2022-12-18T05:12:43;24.80;94.60
19972;DHT22;10147;16.402;102.848;2022-12-18T05:15:34;25.20;94.70
19972;DHT22;10147;16.402;102.848;2022-12-18T05:18:05;25.00;94.80
19972;DHT22;10147;16.402;102.848;2022-12-18T05:20:35;25.00;94.60
19972;DHT22;10147;16.402;102.848;2022-12-18T05:23:05;25.20;94.70
19972;DHT22;10147;16.402;102.848;2022-12-18T05:25:35;25.00;94.60
19972;DHT22;10147;16.402;102.848;2022-12-18T05:28:05;25.30;94.70
19972;DHT22;10147;16.402;102.848;2022-12-18T05:30:35;24.60;94.30
19972;DHT22;10147;16.402;102.848;2022-12-18T05:33:05;25.00;94.80
19972;DHT22;10147;16.402;102.848;2022-12-18T05:35:36;24.90;94.70
19972;DHT22;10147;16.402;102.848;2022-12-18T05:38:06;25.30;94.40
19972;DHT22;10147;16.402;102.848;2022-12-18T05:40:36;25.30;94.60
19972;DHT22;10147;16.402;102.848;2022-12-18T05:43:07;25.50;94.10
19972;DHT22;10147;16.402;102.848;2022-12-18T05:48:13;25.50;94.10
19972;DHT22;10147;16.402;102.848;2022-12-18T05:50:46;25.80;93.90
19972;DHT22;10147;16.402;102.848;2022-12-18T05:53:19;25.80;93.50
19972;DHT22;10147;16.402;102.848;2022-12-18T05:55:49;25.90;94.10
19972;DHT22;10147;16.402;102.848;2022-12-18T05:58:19;25.80;93.50
19972;DHT22;10147;16.402;102.848;2022-12-18T06:00:49;26.10;93.70
19972;DHT22;10147;16.402;102.848;2022-12-18T06:03:20;26.40;94.20
19972;DHT22;10147;16.402;102.848;2022-12-18T06:05:55;26.10;93.80
19972;DHT22;10147;16.402;102.848;2022-12-18T06:08:26;25.90;94.00
19972;DHT22;10147;16.402;102.848;2022-12-18T06:10:56;26.00;93.80
19972;DHT22;10147;16.402;102.848;2022-12-18T06:13:26;26.50;93.80
19972;DHT22;10147;16.402;102.848;2022-12-18T06:15:57;26.80;93.30
19972;DHT22;10147;16.402;102.848;2022-12-18T06:18:28;26.60;92.60
19972;DHT22;10147;16.402;102.848;2022-12-18T06:20:59;26.50;93.60
19972;DHT22;10147;16.402;102.848;2022-12-18T06:23:30;26.60;93.30
19972;DHT22;10147;16.402;102.848;2022-12-18T06:26:04;26.70;93.10
19972;DHT22;10147;16.402;102.848;2022-12-18T06:28:35;26.90;92.80
19972;DHT22;10147;16.402;102.848;2022-12-18T06:31:06;27.00;92.90
19972;DHT22;10147;16.402;102.848;2022-12-18T06:33:38;26.70;93.00
19972;DHT22;10147;16.402;102.848;2022-12-18T06:36:12;26.60;92.60
19972;DHT22;10147;16.402;102.848;2022-12-18T06:38:44;26.70;93.30
19972;DHT22;10147;16.402;102.848;2022-12-18T06:41:16;26.60;93.20
19972;DHT22;10147;16.402;102.848;2022-12-18T06:43:47;26.60;92.80
19972;DHT22;10147;16.402;102.848;2022-12-18T06:46:18;26.70;92.60
19972;DHT22;10147;16.402;102.848;2022-12-18T06:48:49;26.60;92.80
19972;DHT22;10147;16.402;102.848;2022-12-18T06:51:21;26.80;92.90
19972;DHT22;10147;16.402;102.848;2022-12-18T06:53:52;27.00;93.40
19972;DHT22;10147;16.402;102.848;2022-12-18T06:56:22;26.80;92.90
19972;DHT22;10147;16.402;102.848;2022-12-18T06:58:53;26.60;92.70
19972;DHT22;10147;16.402;102.848;2022-12-18T07:01:24;26.30;92.40
19972;DHT22;10147;16.402;102.848;2022-12-18T07:03:56;26.80;92.40
19972;DHT22;10147;16.402;102.848;2022-12-18T07:06:26;26.70;92.20
19972;DHT22;10147;16.402;102.848;2022-12-18T07:08:57;26.70;92.90
19972;DHT22;10147;16.402;102.848;2022-12-18T07:11:28;26.70;92.90
19972;DHT22;10147;16.402;102.848;2022-12-18T07:13:59;26.90;92.40
19972;DHT22;10147;16.402;102.848;2022-12-18T07:16:29;26.40;93.10
19972;DHT22;10147;16.402;102.848;2022-12-18T07:18:59;26.60;92.70
19972;DHT22;10147;16.402;102.848;2022-12-18T07:24:01;26.40;92.40
19972;DHT22;10147;16.402;102.848;2022-12-18T07:26:31;26.80;92.40
19972;DHT22;10147;16.402;102.848;2022-12-18T07:31:33;26.90;92.70
19972;DHT22;10147;16.402;102.848;2022-12-18T07:36:34;27.40;92.50
19972;DHT22;10147;16.402;102.848;2022-12-18T07:39:04;27.30;92.80
19972;DHT22;10147;16.402;102.848;2022-12-18T07:41:34;26.90;92.60
19972;DHT22;10147;16.402;102.848;2022-12-18T07:44:11;26.70;92.80
19972;DHT22;10147;16.402;102.848;2022-12-18T07:46:42;26.50;92.60
19972;DHT22;10147;16.402;102.848;2022-12-18T07:49:12;26.50;92.60
19972;DHT22;10147;16.402;102.848;2022-12-18T07:51:43;26.50;92.60
19972;DHT22;10147;16.402;102.848;2022-12-18T07:54:16;26.60;92.70
19972;DHT22;10147;16.402;102.848;2022-12-18T07:56:46;26.50;93.20
19972;DHT22;10147;16.402;102.848;2022-12-18T07:59:17;26.50;92.80
19972;DHT22;10147;16.402;102.848;2022-12-18T08:01:47;26.00;92.90
19972;DHT22;10147;16.402;102.848;2022-12-18T08:29:43;26.50;93.60
19972;DHT22;10147;16.402;102.848;2022-12-18T08:45:06;26.20;93.50
19972;DHT22;10147;16.402;102.848;2022-12-18T08:47:36;25.80;92.80
19972;DHT22;10147;16.402;102.848;2022-12-18T08:50:09;26.00;93.40
19972;DHT22;10147;16.402;102.848;2022-12-18T08:52:40;26.30;93.30
19972;DHT22;10147;16.402;102.848;2022-12-18T08:55:11;26.20;93.60
19972;DHT22;10147;16.402;102.848;2022-12-18T08:57:41;26.20;93.30
19972;DHT22;10147;16.402;102.848;2022-12-18T09:00:12;25.80;95.10
19972;DHT22;10147;16.402;102.848;2022-12-18T09:02:43;25.60;95.10
19972;DHT22;10147;16.402;102.848;2022-12-18T09:05:14;25.60;94.40
19972;DHT22;10147;16.402;102.848;2022-12-18T09:07:44;25.50;94.80
19972;DHT22;10147;16.402;102.848;2022-12-18T09:10:14;25.60;94.70
19972;DHT22;10147;16.402;102.848;2022-12-18T09:12:45;25.60;94.20
19972;DHT22;10147;16.402;102.848;2022-12-18T09:15:16;25.60;94.50
19972;DHT22;10147;16.402;102.848;2022-12-18T09:17:48;25.60;94.90
19972;DHT22;10147;16.402;102.848;2022-12-18T09:20:19;25.70;94.10
19972;DHT22;10147;16.402;102.848;2022-12-18T09:22:50;25.40;95.30
19972;DHT22;10147;16.402;102.848;2022-12-18T09:25:20;25.20;95.10
19972;DHT22;10147;16.402;102.848;2022-12-18T09:27:52;25.10;94.80
19972;DHT22;10147;16.402;102.848;2022-12-18T09:30:22;25.20;94.60
19972;DHT22;10147;16.402;102.848;2022-12-18T09:32:56;25.20;94.70
19972;DHT22;10147;16.402;102.848;2022-12-18T09:35:26;25.10;95.00
19972;DHT22;10147;16.402;102.848;2022-12-18T09:37:57;24.70;94.90
19972;DHT22;10147;16.402;102.848;2022-12-18T09:40:33;24.80;95.30
19972;DHT22;10147;16.402;102.848;2022-12-18T09:43:05;24.80;95.60
19972;DHT22;10147;16.402;102.848;2022-12-18T09:45:44;24.80;95.50
19972;DHT22;10147;16.402;102.848;2022-12-18T09:48:35;24.80;95.50
19972;DHT22;10147;16.402;102.848;2022-12-18T09:51:40;24.80;95.20
19972;DHT22;10147;16.402;102.848;2022-12-18T09:54:11;24.80;95.80
19972;DHT22;10147;16.402;102.848;2022-12-18T09:56:43;24.60;95.90
19972;DHT22;10147;16.402;102.848;2022-12-18T09:59:29;24.50;95.60
19972;DHT22;10147;16.402;102.848;2022-12-18T10:02:14;24.10;96.10
19972;DHT22;10147;16.402;102.848;2022-12-18T10:04:55;23.90;96.40
19972;DHT22;10147;16.402;102.848;2022-12-18T10:10:48;23.90;96.90
19972;DHT22;10147;16.402;102.848;2022-12-18T10:13:42;23.70;97.10
19972;DHT22;10147;16.402;102.848;2022-12-18T10:19:50;23.90;97.90
19972;DHT22;10147;16.402;102.848;2022-12-18T10:22:50;23.90;97.20
19972;DHT22;10147;16.402;102.848;2022-12-18T10:26:00;23.70;97.70
19972;DHT22;10147;16.402;102.848;2022-12-18T10:28:33;23.80;98.00
19972;DHT22;10147;16.402;102.848;2022-12-18T10:31:18;23.90;98.20
19972;DHT22;10147;16.402;102.848;2022-12-18T10:33:54;24.10;97.90
19972;DHT22;10147;16.402;102.848;2022-12-18T10:36:25;23.80;98.10
19972;DHT22;10147;16.402;102.848;2022-12-18T10:39:19;23.80;98.00
19972;DHT22;10147;16.402;102.848;2022-12-18T10:41:50;23.60;98.30
19972;DHT22;10147;16.402;102.848;2022-12-18T10:44:23;23.40;98.40
19972;DHT22;10147;16.402;102.848;2022-12-18T10:47:04;23.50;98.70
19972;DHT22;10147;16.402;102.848;2022-12-18T10:49:46;23.60;98.80
19972;DHT22;10147;16.402;102.848;2022-12-18T10:52:20;23.50;98.70
19972;DHT22;10147;16.402;102.848;2022-12-18T10:54:55;23.30;99.50
19972;DHT22;10147;16.402;102.848;2022-12-18T10:57:35;23.40;99.90
19972;DHT22;10147;16.402;102.848;2022-12-18T11:00:27;23.20;99.90
19972;DHT22;10147;16.402;102.848;2022-12-18T11:02:59;23.10;99.90
19972;DHT22;10147;16.402;102.848;2022-12-18T11:05:34;22.90;99.90
19972;DHT22;10147;16.402;102.848;2022-12-18T11:08:20;22.90;99.90
19972;DHT22;10147;16.402;102.848;2022-12-18T11:10:54;23.00;99.90
19972;DHT22;10147;16.402;102.848;2022-12-18T11:13:28;23.00;99.90
19972;DHT22;10147;16.402;102.848;2022-12-18T11:15:59;23.10;99.90
19972;DHT22;10147;16.402;102.848;2022-12-18T11:18:34;22.90;99.90
19972;DHT22;10147;16.402;102.848;2022-12-18T11:21:11;22.80;99.90
19972;DHT22;10147;16.402;102.848;2022-12-18T11:23:49;22.70;99.90
19972;DHT22;10147;16.402;102.848;2022-12-18T11:26:21;22.70;99.90
19972;DHT22;10147;16.402;102.848;2022-12-18T11:29:15;22.70;99.90
19972;DHT22;10147;16.402;102.848;2022-12-18T11:52:59;22.60;99.90
19972;DHT22;10147;16.402;102.848;2022-12-18T12:23:44;21.60;99.90
19972;DHT22;10147;16.402;102.848;2022-12-18T12:26:33;21.50;99.90
19972;DHT22;10147;16.402;102.848;2022-12-18T12:35:47;21.30;99.90
19972;DHT22;10147;16.402;102.848;2022-12-18T12:38:34;21.30;99.90
19972;DHT22;10147;16.402;102.848;2022-12-18T12:41:08;21.30;99.90
19972;DHT22;10147;16.402;102.848;2022-12-18T12:44:02;21.60;99.90
19972;DHT22;10147;16.402;102.848;2022-12-18T12:46:37;21.70;99.90
19972;DHT22;10147;16.402;102.848;2022-12-18T12:49:19;21.70;99.90
19972;DHT22;10147;16.402;102.848;2022-12-18T12:52:11;21.60;99.90
19972;DHT22;10147;16.402;102.848;2022-12-18T12:54:43;21.50;99.90
